Time,TemperatureF,DewpointF,PressureIn,WindDirection,WindDirectionDegrees,WindSpeedMPH,WindSpeedGustMPH,Humidity,HourlyPrecipIn,Conditions,Clouds,dailyrainin,SoftwareType,DateUTC
2013-09-10 00:06:00,71.5,63.0,29.78,NE,44,0.0,-999.0,74,-99.99,,,0.00,weatherlink.com 1.10,2013-09-10 07:06:00,
2013-09-10 00:21:00,71.3,63.0,29.78,NE,50,5.0,-999.0,74,-99.99,,,0.00,weatherlink.com 1.10,2013-09-10 07:21:00,
2013-09-10 00:36:00,70.9,63.0,29.78,NE,48,4.0,-999.0,75,-99.99,,,0.00,weatherlink.com 1.10,2013-09-10 07:36:00,
2013-09-10 00:51:00,70.8,63.0,29.78,NE,45,5.0,-999.0,75,-99.99,,,0.00,weatherlink.com 1.10,2013-09-10 07:51:00,
2013-09-10 01:06:00,70.4,63.0,29.78,NE,38,5.0,-999.0,76,-99.99,,,0.00,weatherlink.com 1.10,2013-09-10 08:06:00,
2013-09-10 01:21:00,69.9,62.0,29.78,NE,42,7.0,-999.0,77,-99.99,,,0.00,weatherlink.com 1.10,2013-09-10 08:21:00,
2013-09-10 01:36:00,69.6,62.0,29.78,NE,43,1.0,-999.0,77,-99.99,,,0.00,weatherlink.com 1.10,2013-09-10 08:36:00,
2013-09-10 01:51:00,69.1,62.0,29.78,NNE,19,3.0,-999.0,78,-99.99,,,0.00,weatherlink.com 1.10,2013-09-10 08:51:00,
2013-09-10 02:06:00,68.8,62.0,29.77,NNE,28,0.0,-999.0,78,-99.99,,,0.00,weatherlink.com 1.10,2013-09-10 09:06:00,
2013-09-10 02:21:00,68.3,62.0,29.77,NE,40,1.0,-999.0,79,-99.99,,,0.00,weatherlink.com 1.10,2013-09-10 09:21:00,
2013-09-10 02:36:00,68.6,62.0,29.77,NNE,32,0.0,-999.0,78,-99.99,,,0.00,weatherlink.com 1.10,2013-09-10 09:36:00,
2013-09-10 02:51:00,68.3,62.0,29.77,NE,35,1.0,-999.0,79,-99.99,,,0.00,weatherlink.com 1.10,2013-09-10 09:51:00,
2013-09-10 03:06:00,67.9,61.0,29.77,NE,51,0.0,-999.0,79,-99.99,,,0.00,weatherlink.com 1.10,2013-09-10 10:06:00,
2013-09-10 03:21:00,67.8,61.0,29.77,NE,37,0.0,-999.0,79,-99.99,,,0.00,weatherlink.com 1.10,2013-09-10 10:21:00,
2013-09-10 03:36:00,67.8,61.0,29.77,NE,40,0.0,-999.0,79,-99.99,,,0.00,weatherlink.com 1.10,2013-09-10 10:36:00,
2013-09-10 03:51:00,67.9,61.0,29.77,NE,42,4.0,-999.0,78,-99.99,,,0.00,weatherlink.com 1.10,2013-09-10 10:51:00,
2013-09-10 04:06:00,67.9,60.0,29.77,NE,55,4.0,-999.0,77,-99.99,,,0.00,weatherlink.com 1.10,2013-09-10 11:06:00,
2013-09-10 04:21:00,67.6,61.0,29.77,NNE,17,2.0,-999.0,78,-99.99,,,0.00,weatherlink.com 1.10,2013-09-10 11:21:00,
2013-09-10 04:36:00,67.1,60.0,29.77,NE,50,0.0,-999.0,79,-99.99,,,0.00,weatherlink.com 1.10,2013-09-10 11:36:00,
2013-09-10 04:51:00,66.8,60.0,29.77,North,5,2.0,-999.0,79,-99.99,,,0.00,weatherlink.com 1.10,2013-09-10 11:51:00,
2013-09-10 05:06:00,66.1,60.0,29.77,NNE,17,0.0,-999.0,80,-99.99,,,0.00,weatherlink.com 1.10,2013-09-10 12:06:00,
2013-09-10 05:21:00,65.5,60.0,29.77,NNE,26,0.0,-999.0,82,-99.99,,,0.00,weatherlink.com 1.10,2013-09-10 12:21:00,
2013-09-10 05:36:00,65.0,60.0,29.77,NNE,33,0.0,-999.0,83,-99.99,,,0.00,weatherlink.com 1.10,2013-09-10 12:36:00,
2013-09-10 05:51:00,64.3,60.0,29.77,NE,34,0.0,-999.0,85,-99.99,,,0.00,weatherlink.com 1.10,2013-09-10 12:51:00,
2013-09-10 06:06:00,64.3,60.0,29.77,NNE,33,3.0,-999.0,85,-99.99,,,0.00,weatherlink.com 1.10,2013-09-10 13:06:00,
2013-09-10 06:21:00,64.3,60.0,29.77,NNE,31,2.0,-999.0,85,-99.99,,,0.00,weatherlink.com 1.10,2013-09-10 13:21:00,
2013-09-10 06:36:00,64.2,60.0,29.77,NNE,19,6.0,-999.0,85,-99.99,,,0.00,weatherlink.com 1.10,2013-09-10 13:36:00,
2013-09-10 06:51:00,64.0,60.0,29.77,NE,40,3.0,-999.0,85,-99.99,,,0.00,weatherlink.com 1.10,2013-09-10 13:51:00,
2013-09-10 07:06:00,63.4,60.0,29.77,NE,40,0.0,-999.0,87,-99.99,,,0.00,weatherlink.com 1.10,2013-09-10 14:06:00,
2013-09-10 07:21:00,63.4,60.0,29.77,NE,40,0.0,-999.0,88,-99.99,,,0.00,weatherlink.com 1.10,2013-09-10 14:21:00,
2013-09-10 07:36:00,63.5,60.0,29.77,NE,40,0.0,-999.0,88,-99.99,,,0.00,weatherlink.com 1.10,2013-09-10 14:36:00,
2013-09-10 07:51:00,64.0,60.0,29.77,NE,40,0.0,-999.0,86,-99.99,,,0.00,weatherlink.com 1.10,2013-09-10 14:51:00,
2013-09-10 08:06:00,64.7,60.0,29.77,NE,40,1.0,-999.0,85,-99.99,,,0.00,weatherlink.com 1.10,2013-09-10 15:06:00,
2013-09-10 08:21:00,65.5,61.0,29.77,NE,39,0.0,-999.0,84,-99.99,,,0.00,weatherlink.com 1.10,2013-09-10 15:21:00,
2013-09-10 08:36:00,66.3,60.0,29.77,NNE,33,2.0,-999.0,81,-99.99,,,0.00,weatherlink.com 1.10,2013-09-10 15:36:00,
2013-09-10 08:51:00,67.4,61.0,29.77,NE,36,1.0,-999.0,79,-99.99,,,0.00,weatherlink.com 1.10,2013-09-10 15:51:00,
2013-09-10 09:06:00,67.9,60.0,29.77,NE,34,0.0,-999.0,77,-99.99,,,0.00,weatherlink.com 1.10,2013-09-10 16:06:00,
2013-09-10 09:21:00,68.6,62.0,29.77,NNE,24,1.0,-999.0,78,-99.99,,,0.00,weatherlink.com 1.10,2013-09-10 16:21:00,
2013-09-10 09:36:00,68.6,62.0,29.77,NE,42,3.0,-999.0,78,-99.99,,,0.00,weatherlink.com 1.10,2013-09-10 16:36:00,
2013-09-10 09:51:00,69.1,62.0,29.77,ENE,61,1.0,-999.0,78,-99.99,,,0.00,weatherlink.com 1.10,2013-09-10 16:51:00,
2013-09-10 10:06:00,69.9,61.0,29.77,NE,46,3.0,-999.0,74,-99.99,,,0.00,weatherlink.com 1.10,2013-09-10 17:06:00,
2013-09-10 10:21:00,71.1,62.0,29.77,NNE,22,4.0,-999.0,73,-99.99,,,0.00,weatherlink.com 1.10,2013-09-10 17:21:00,
2013-09-10 10:36:00,71.5,62.0,29.76,NE,35,3.0,-999.0,72,-99.99,,,0.00,weatherlink.com 1.10,2013-09-10 17:36:00,
2013-09-10 10:51:00,72.1,62.0,29.76,NNE,19,5.0,-999.0,71,-99.99,,,0.00,weatherlink.com 1.10,2013-09-10 17:51:00,
2013-09-10 11:06:00,73.3,63.0,29.75,NNE,30,9.0,-999.0,69,-99.99,,,0.00,weatherlink.com 1.10,2013-09-10 18:06:00,
2013-09-10 11:21:00,73.7,62.0,29.75,NNE,31,2.0,-999.0,68,-99.99,,,0.00,weatherlink.com 1.10,2013-09-10 18:21:00,
2013-09-10 11:36:00,74.7,63.0,29.75,NE,34,3.0,-999.0,66,-99.99,,,0.00,weatherlink.com 1.10,2013-09-10 18:36:00,
2013-09-10 11:51:00,75.4,63.0,29.74,NE,42,1.0,-999.0,66,-99.99,,,0.00,weatherlink.com 1.10,2013-09-10 18:51:00,
2013-09-10 12:06:00,76.3,63.0,29.74,NE,39,3.0,-999.0,64,-99.99,,,0.00,weatherlink.com 1.10,2013-09-10 19:06:00,
2013-09-10 12:21:00,77.2,63.0,29.73,NNE,27,4.0,-999.0,62,-99.99,,,0.00,weatherlink.com 1.10,2013-09-10 19:21:00,
2013-09-10 12:36:00,78.1,64.0,29.73,NNE,27,5.0,-999.0,63,-99.99,,,0.00,weatherlink.com 1.10,2013-09-10 19:36:00,
2013-09-10 12:51:00,79.0,64.0,29.72,NE,34,0.0,-999.0,61,-99.99,,,0.00,weatherlink.com 1.10,2013-09-10 19:51:00,
2013-09-10 13:21:00,80.5,63.0,29.71,NE,38,4.0,-999.0,56,-99.99,,,0.00,weatherlink.com 1.10,2013-09-10 20:21:00,
2013-09-10 13:36:00,81.4,63.0,29.70,NNE,32,4.0,-999.0,54,-99.99,,,0.00,weatherlink.com 1.10,2013-09-10 20:36:00,
2013-09-10 13:51:00,82.4,63.0,29.70,NE,38,6.0,-999.0,52,-99.99,,,0.00,weatherlink.com 1.10,2013-09-10 20:51:00,
2013-09-10 14:06:00,83.0,63.0,29.70,NE,51,3.0,-999.0,51,-99.99,,,0.00,weatherlink.com 1.10,2013-09-10 21:06:00,
2013-09-10 14:21:00,83.8,64.0,29.69,NNE,28,3.0,-999.0,51,-99.99,,,0.00,weatherlink.com 1.10,2013-09-10 21:21:00,
2013-09-10 14:36:00,84.0,63.0,29.69,NNE,26,5.0,-999.0,50,-99.99,,,0.00,weatherlink.com 1.10,2013-09-10 21:36:00,
2013-09-10 14:51:00,84.3,63.0,29.69,NE,44,5.0,-999.0,49,-99.99,,,0.00,weatherlink.com 1.10,2013-09-10 21:51:00,
2013-09-10 15:06:00,84.7,63.0,29.68,NNE,19,0.0,-999.0,49,-99.99,,,0.00,weatherlink.com 1.10,2013-09-10 22:06:00,
2013-09-10 15:21:00,85.5,64.0,29.68,NNE,24,2.0,-999.0,48,-99.99,,,0.00,weatherlink.com 1.10,2013-09-10 22:21:00,
2013-09-10 15:36:00,85.7,63.0,29.67,NNE,15,2.0,-999.0,47,-99.99,,,0.00,weatherlink.com 1.10,2013-09-10 22:36:00,
2013-09-10 15:51:00,86.5,63.0,29.67,NNE,29,2.0,-999.0,46,-99.99,,,0.00,weatherlink.com 1.10,2013-09-10 22:51:00,
2013-09-10 16:06:00,86.7,62.0,29.66,NNE,13,0.0,-999.0,44,-99.99,,,0.00,weatherlink.com 1.10,2013-09-10 23:06:00,
2013-09-10 16:21:00,87.4,65.0,29.66,NNE,30,0.0,-999.0,47,-99.99,,,0.00,weatherlink.com 1.10,2013-09-10 23:21:00,
2013-09-10 16:36:00,87.8,63.0,29.65,NNE,12,1.0,-999.0,43,-99.99,,,0.00,weatherlink.com 1.10,2013-09-10 23:36:00,
2013-09-10 16:51:00,88.2,63.0,29.65,NE,39,3.0,-999.0,43,-99.99,,,0.00,weatherlink.com 1.10,2013-09-10 23:51:00,
2013-09-10 17:06:00,88.2,62.0,29.64,NE,56,0.0,-999.0,42,-99.99,,,0.00,weatherlink.com 1.10,2013-09-11 00:06:00,
2013-09-10 17:21:00,87.8,63.0,29.64,NE,39,0.0,-999.0,43,-99.99,,,0.00,weatherlink.com 1.10,2013-09-11 00:21:00,
2013-09-10 17:36:00,88.0,63.0,29.64,NE,47,1.0,-999.0,43,-99.99,,,0.00,weatherlink.com 1.10,2013-09-11 00:36:00,
2013-09-10 17:51:00,87.6,62.0,29.64,NE,40,1.0,-999.0,43,-99.99,,,0.00,weatherlink.com 1.10,2013-09-11 00:51:00,
2013-09-10 18:06:00,86.7,63.0,29.64,NE,42,3.0,-999.0,45,-99.99,,,0.00,weatherlink.com 1.10,2013-09-11 01:06:00,
2013-09-10 18:21:00,86.1,62.0,29.64,NE,38,2.0,-999.0,45,-99.99,,,0.00,weatherlink.com 1.10,2013-09-11 01:21:00,
2013-09-10 18:36:00,85.3,63.0,29.64,NE,34,3.0,-999.0,47,-99.99,,,0.00,weatherlink.com 1.10,2013-09-11 01:36:00,
2013-09-10 18:51:00,84.7,63.0,29.64,NE,38,2.0,-999.0,48,-99.99,,,0.00,weatherlink.com 1.10,2013-09-11 01:51:00,
2013-09-10 19:06:00,83.6,64.0,29.64,NE,38,0.0,-999.0,51,-99.99,,,0.00,weatherlink.com 1.10,2013-09-11 02:06:00,
2013-09-10 19:21:00,82.4,63.0,29.63,NE,38,0.0,-999.0,52,-99.99,,,0.00,weatherlink.com 1.10,2013-09-11 02:21:00,
2013-09-10 19:36:00,81.4,62.0,29.63,NE,38,0.0,-999.0,52,-99.99,,,0.00,weatherlink.com 1.10,2013-09-11 02:36:00,
2013-09-10 19:51:00,81.8,62.0,29.63,NE,38,0.0,-999.0,52,-99.99,,,0.00,weatherlink.com 1.10,2013-09-11 02:51:00,
2013-09-10 20:06:00,82.6,61.0,29.63,NE,42,1.0,-999.0,49,-99.99,,,0.00,weatherlink.com 1.10,2013-09-11 03:06:00,
2013-09-10 20:21:00,82.8,61.0,29.64,NE,42,1.0,-999.0,47,-99.99,,,0.00,weatherlink.com 1.10,2013-09-11 03:21:00,
2013-09-10 20:36:00,83.0,60.0,29.64,NE,38,4.0,-999.0,46,-99.99,,,0.00,weatherlink.com 1.10,2013-09-11 03:36:00,
2013-09-10 20:51:00,82.8,61.0,29.64,NNE,26,0.0,-999.0,47,-99.99,,,0.00,weatherlink.com 1.10,2013-09-11 03:51:00,
2013-09-10 21:06:00,82.4,60.0,29.64,NE,44,7.0,-999.0,47,-99.99,,,0.00,weatherlink.com 1.10,2013-09-11 04:06:00,
2013-09-10 21:21:00,83.2,60.0,29.64,NE,52,1.0,-999.0,45,-99.99,,,0.00,weatherlink.com 1.10,2013-09-11 04:21:00,
2013-09-10 21:36:00,83.4,59.0,29.64,NE,43,4.0,-999.0,44,-99.99,,,0.00,weatherlink.com 1.10,2013-09-11 04:36:00,
2013-09-10 21:51:00,82.6,59.0,29.64,NNE,23,5.0,-999.0,45,-99.99,,,0.00,weatherlink.com 1.10,2013-09-11 04:51:00,
2013-09-10 22:06:00,82.4,59.0,29.65,NE,40,2.0,-999.0,45,-99.99,,,0.00,weatherlink.com 1.10,2013-09-11 05:06:00,
2013-09-10 22:21:00,81.8,58.0,29.65,NE,51,0.0,-999.0,45,-99.99,,,0.00,weatherlink.com 1.10,2013-09-11 05:21:00,
2013-09-10 22:36:00,81.2,58.0,29.65,NE,37,3.0,-999.0,46,-99.99,,,0.00,weatherlink.com 1.10,2013-09-11 05:36:00,
2013-09-10 22:51:00,80.9,58.0,29.66,NNE,23,2.0,-999.0,46,-99.99,,,0.00,weatherlink.com 1.10,2013-09-11 05:51:00,
2013-09-10 23:06:00,80.5,58.0,29.66,NE,42,0.0,-999.0,46,-99.99,,,0.00,weatherlink.com 1.10,2013-09-11 06:06:00,
2013-09-10 23:21:00,80.1,58.0,29.66,NNE,22,3.0,-999.0,47,-99.99,,,0.00,weatherlink.com 1.10,2013-09-11 06:21:00,
2013-09-10 23:36:00,79.4,57.0,29.66,NE,38,0.0,-999.0,47,-99.99,,,0.00,weatherlink.com 1.10,2013-09-11 06:36:00,
2013-09-10 23:51:00,78.8,57.0,29.66,NE,42,0.0,-999.0,47,-99.99,,,0.00,weatherlink.com 1.10,2013-09-11 06:51:00,